createdAt,value
2022-09-25T00:02:12.200Z,20.30
2022-09-25T00:05:39.043Z,20.40
2022-09-25T00:09:02.090Z,20.40
2022-09-25T00:12:24.236Z,20.40
2022-09-25T00:15:53.291Z,20.30
2022-09-25T00:19:40.050Z,20.40
2022-09-25T00:23:02.445Z,20.40
2022-09-25T00:26:28.628Z,20.40
2022-09-25T00:29:50.801Z,20.40
2022-09-25T00:33:13.012Z,20.40
2022-09-25T00:36:35.727Z,20.40
2022-09-25T00:39:57.991Z,20.40
2022-09-25T00:43:44.699Z,20.40
2022-09-25T00:47:07.942Z,20.40
2022-09-25T00:50:36.577Z,20.40
2022-09-25T00:54:02.494Z,20.40
2022-09-25T00:57:30.012Z,20.40
2022-09-25T01:00:53.412Z,20.40
2022-09-25T01:04:17.863Z,20.40
2022-09-25T01:07:43.712Z,20.30
2022-09-25T01:11:06.041Z,20.30
2022-09-25T01:14:29.097Z,20.30
2022-09-25T01:18:16.834Z,20.40
2022-09-25T01:21:50.592Z,20.40
2022-09-25T01:25:24.473Z,20.40
2022-09-25T01:29:06.665Z,20.40
2022-09-25T01:32:51.610Z,20.40
2022-09-25T01:36:19.685Z,20.40
2022-09-25T01:39:47.234Z,20.30
2022-09-25T01:43:28.073Z,20.40
2022-09-25T01:46:53.331Z,20.40
2022-09-25T01:50:38.704Z,20.40
2022-09-25T01:54:10.339Z,20.30
2022-09-25T01:57:49.261Z,20.40
2022-09-25T02:01:17.944Z,20.40
2022-09-25T02:05:01.245Z,20.30
2022-09-25T02:08:29.718Z,20.30
2022-09-25T02:11:58.197Z,20.40
2022-09-25T02:15:34.254Z,20.30
2022-09-25T02:19:15.294Z,20.30
2022-09-25T02:22:37.884Z,20.30
2022-09-25T02:26:04.849Z,20.30
2022-09-25T02:29:27.110Z,20.30
2022-09-25T02:32:52.115Z,20.30
2022-09-25T02:36:22.063Z,20.30
2022-09-25T02:39:48.024Z,20.30
2022-09-25T02:43:19.524Z,20.30
2022-09-25T02:47:13.244Z,20.30
2022-09-25T02:50:41.333Z,20.30
2022-09-25T02:54:21.469Z,20.30
2022-09-25T02:58:06.942Z,20.30
2022-09-25T03:01:32.895Z,20.30
2022-09-25T03:04:56.427Z,20.20
2022-09-25T03:08:38.370Z,20.30
2022-09-25T03:12:03.228Z,20.30
2022-09-25T03:15:25.490Z,20.30
2022-09-25T03:18:48.327Z,20.30
2022-09-25T03:22:12.023Z,20.30
2022-09-25T03:25:34.282Z,20.30
2022-09-25T03:28:56.856Z,20.30
2022-09-25T03:32:19.061Z,20.30
2022-09-25T03:35:41.199Z,20.30
2022-09-25T03:39:03.829Z,20.30
2022-09-25T03:42:28.061Z,20.30
2022-09-25T03:45:50.361Z,20.30
2022-09-25T03:49:12.807Z,20.30
2022-09-25T03:52:35.297Z,20.30
2022-09-25T03:55:57.677Z,20.30
2022-09-25T03:59:19.868Z,20.30
2022-09-25T04:02:42.200Z,20.30
2022-09-25T04:06:06.164Z,20.30
2022-09-25T04:09:28.526Z,20.30
2022-09-25T04:12:54.423Z,20.30
2022-09-25T04:16:20.503Z,20.30
2022-09-25T04:19:42.750Z,20.30
2022-09-25T04:23:04.994Z,20.30
2022-09-25T04:26:27.157Z,20.30
2022-09-25T04:29:49.528Z,20.30
2022-09-25T04:33:30.433Z,20.30
2022-09-25T04:36:52.624Z,20.30
2022-09-25T04:40:14.971Z,20.30
2022-09-25T04:43:37.295Z,20.30
2022-09-25T04:46:59.605Z,20.30
2022-09-25T04:50:22.562Z,20.30
2022-09-25T04:53:48.781Z,20.30
2022-09-25T04:57:23.445Z,20.30
2022-09-25T05:01:09.334Z,20.30
2022-09-25T05:04:32.060Z,20.20
2022-09-25T05:07:55.851Z,20.20
2022-09-25T05:11:18.224Z,20.30
2022-09-25T05:14:42.628Z,20.30
2022-09-25T05:18:06.202Z,20.30
2022-09-25T05:21:28.371Z,20.20
2022-09-25T05:24:58.047Z,20.20
2022-09-25T05:28:21.166Z,20.30
2022-09-25T05:31:46.743Z,20.20
2022-09-25T05:35:09.091Z,20.30
2022-09-25T05:38:35.533Z,20.20
2022-09-25T05:41:57.720Z,20.30
2022-09-25T05:45:21.452Z,20.30
2022-09-25T05:48:46.520Z,20.20
2022-09-25T05:52:08.848Z,20.30
2022-09-25T05:55:31.382Z,20.20
2022-09-25T05:58:54.953Z,20.30
2022-09-25T06:02:17.383Z,20.20
2022-09-25T06:05:40.533Z,20.20
2022-09-25T06:09:02.696Z,20.20
2022-09-25T06:12:25.003Z,20.20
2022-09-25T06:15:50.641Z,20.20
2022-09-25T06:19:12.911Z,20.20
2022-09-25T06:22:35.148Z,20.20
2022-09-25T06:26:01.959Z,20.20
2022-09-25T06:29:24.208Z,20.20
2022-09-25T06:32:46.553Z,20.20
2022-09-25T06:36:08.865Z,20.20
2022-09-25T06:39:33.290Z,20.20
2022-09-25T06:43:03.556Z,20.20
2022-09-25T06:46:25.927Z,20.20
2022-09-25T06:49:48.139Z,20.20
2022-09-25T06:53:11.833Z,20.30
2022-09-25T06:56:33.991Z,20.40
2022-09-25T06:59:56.560Z,20.60
2022-09-25T07:03:37.685Z,20.70
2022-09-25T07:07:00.548Z,20.80
2022-09-25T07:10:22.948Z,20.90
2022-09-25T07:13:45.487Z,20.90
2022-09-25T07:17:08.318Z,21.00
2022-09-25T07:20:30.610Z,21.00
2022-09-25T07:23:53.482Z,21.00
2022-09-25T07:27:15.754Z,21.10
2022-09-25T07:30:37.886Z,21.10
2022-09-25T07:34:02.970Z,21.20
2022-09-25T07:37:25.583Z,21.20
2022-09-25T07:40:47.771Z,21.30
2022-09-25T07:44:29.058Z,21.30
2022-09-25T07:48:00.692Z,21.30
2022-09-25T07:51:23.488Z,21.40
2022-09-25T07:54:45.761Z,21.40
2022-09-25T07:58:07.948Z,21.40
2022-09-25T08:01:30.293Z,21.40
2022-09-25T08:04:52.951Z,21.40
2022-09-25T08:08:15.177Z,21.40
2022-09-25T08:11:37.759Z,21.40
2022-09-25T08:14:59.995Z,21.40
2022-09-25T08:18:22.274Z,21.40
2022-09-25T08:21:45.034Z,21.50
2022-09-25T08:25:07.470Z,21.50
2022-09-25T08:28:29.920Z,21.60
2022-09-25T08:31:52.066Z,21.60
2022-09-25T08:35:14.687Z,21.70
2022-09-25T08:38:37.110Z,21.80
2022-09-25T08:42:00.708Z,21.80
2022-09-25T08:45:50.340Z,21.80
2022-09-25T08:49:14.953Z,21.70
2022-09-25T08:52:41.146Z,21.60
2022-09-25T08:56:17.755Z,21.60
2022-09-25T08:59:47.442Z,21.70
2022-09-25T09:03:11.426Z,21.60
2022-09-25T09:06:34.318Z,21.60
2022-09-25T09:10:05.292Z,21.50
2022-09-25T09:13:42.101Z,21.50
2022-09-25T09:17:11.019Z,21.50
2022-09-25T09:20:56.237Z,21.50
2022-09-25T09:24:34.345Z,21.50
2022-09-25T09:28:20.150Z,21.40
2022-09-25T09:32:00.899Z,21.50
2022-09-25T09:35:38.539Z,21.50
2022-09-25T09:39:15.909Z,21.50
2022-09-25T09:42:59.723Z,21.50
2022-09-25T09:46:40.329Z,21.50
2022-09-25T09:50:48.458Z,21.40
2022-09-25T09:54:21.392Z,21.50
2022-09-25T09:57:52.026Z,21.50
2022-09-25T10:01:39.765Z,21.40
2022-09-25T10:05:03.780Z,21.50
2022-09-25T10:08:26.108Z,21.50
2022-09-25T10:11:59.790Z,21.50
2022-09-25T10:15:30.041Z,21.50
2022-09-25T10:19:11.989Z,21.60
2022-09-25T10:22:39.689Z,21.60
2022-09-25T10:26:01.882Z,21.70
2022-09-25T10:29:28.287Z,21.70
2022-09-25T10:32:59.743Z,21.70
2022-09-25T10:36:45.692Z,21.70
2022-09-25T10:40:35.508Z,21.70
2022-09-25T10:44:02.121Z,21.70
2022-09-25T10:47:42.679Z,21.70
2022-09-25T10:51:09.976Z,21.80
2022-09-25T10:54:32.358Z,21.70
2022-09-25T10:58:10.653Z,21.70
2022-09-25T11:01:39.844Z,21.60
2022-09-25T11:05:03.055Z,21.60
2022-09-25T11:08:30.095Z,21.70
2022-09-25T11:12:04.529Z,21.80
2022-09-25T11:15:27.841Z,21.80
2022-09-25T11:18:55.418Z,21.70
2022-09-25T11:22:25.755Z,21.70
2022-09-25T11:26:18.585Z,21.60
2022-09-25T11:29:51.076Z,21.60
2022-09-25T11:33:32.841Z,21.60
2022-09-25T11:37:27.116Z,21.60
2022-09-25T11:41:14.743Z,21.60
2022-09-25T11:44:58.400Z,21.60
2022-09-25T11:48:46.950Z,21.70
2022-09-25T11:52:39.995Z,21.70
2022-09-25T11:56:18.096Z,21.60
2022-09-25T12:00:01.177Z,21.70
2022-09-25T12:03:51.404Z,21.60
2022-09-25T12:07:53.633Z,21.70
2022-09-25T12:11:30.913Z,21.70
2022-09-25T12:15:14.766Z,21.60
2022-09-25T12:19:10.822Z,21.60
2022-09-25T12:22:41.389Z,21.60
2022-09-25T12:26:15.248Z,21.60
2022-09-25T12:30:15.776Z,21.60
2022-09-25T12:34:00.947Z,21.60
2022-09-25T12:37:50.201Z,21.60
2022-09-25T12:41:34.202Z,21.50
2022-09-25T12:45:19.815Z,21.60
2022-09-25T12:48:54.215Z,21.60
2022-09-25T12:52:21.389Z,21.60
2022-09-25T12:55:56.387Z,21.50
2022-09-25T12:59:46.354Z,21.60
2022-09-25T13:03:17.580Z,21.60
2022-09-25T13:07:10.107Z,21.60
2022-09-25T13:10:58.373Z,21.60
2022-09-25T13:14:34.702Z,21.60
2022-09-25T13:17:59.020Z,21.60
2022-09-25T13:21:31.433Z,21.60
2022-09-25T13:25:16.652Z,21.60
2022-09-25T13:28:47.877Z,21.50
2022-09-25T13:32:19.770Z,21.50
2022-09-25T13:35:42.023Z,21.50
2022-09-25T13:39:34.894Z,21.40
2022-09-25T13:43:18.426Z,21.40
2022-09-25T13:46:40.813Z,21.30
2022-09-25T13:50:12.198Z,21.30
2022-09-25T13:53:52.132Z,21.20
2022-09-25T13:57:15.235Z,21.20
2022-09-25T14:00:37.287Z,21.30
2022-09-25T14:03:59.541Z,21.30
2022-09-25T14:07:26.414Z,21.30
2022-09-25T14:10:51.882Z,21.30
2022-09-25T14:14:30.110Z,21.30
2022-09-25T14:17:54.884Z,21.30
2022-09-25T14:21:20.138Z,21.30
2022-09-25T14:24:45.282Z,21.30
2022-09-25T14:28:23.898Z,21.30
2022-09-25T14:32:00.352Z,21.30
2022-09-25T14:35:39.319Z,21.30
2022-09-25T14:39:07.346Z,21.30
2022-09-25T14:42:59.636Z,21.30
2022-09-25T14:46:23.021Z,21.40
2022-09-25T14:49:50.800Z,21.50
2022-09-25T14:53:21.402Z,21.50
2022-09-25T14:56:50.052Z,21.60
2022-09-25T15:00:18.318Z,21.60
2022-09-25T15:03:47.043Z,21.70
2022-09-25T15:07:14.801Z,21.70
2022-09-25T15:10:39.550Z,21.80
2022-09-25T15:14:16.259Z,21.80
2022-09-25T15:17:49.385Z,21.80
2022-09-25T15:21:19.817Z,21.80
2022-09-25T15:24:49.217Z,21.80
2022-09-25T15:28:25.265Z,21.80
2022-09-25T15:31:52.902Z,21.80
2022-09-25T15:35:19.484Z,21.80
2022-09-25T15:38:42.591Z,21.90
2022-09-25T15:42:05.839Z,21.80
2022-09-25T15:45:36.936Z,21.80
2022-09-25T15:49:00.314Z,21.90
2022-09-25T15:52:25.102Z,21.80
2022-09-25T15:55:48.040Z,21.80
2022-09-25T15:59:58.434Z,21.80
2022-09-25T16:03:44.672Z,21.80
2022-09-25T16:07:33.086Z,21.80
2022-09-25T16:11:22.737Z,21.80
2022-09-25T16:14:44.959Z,21.70
2022-09-25T16:18:19.474Z,21.70
2022-09-25T16:21:41.738Z,21.80
2022-09-25T16:25:15.445Z,21.80
2022-09-25T16:28:19.817Z,21.70
2022-09-25T16:31:24.324Z,21.80
2022-09-25T16:34:29.182Z,21.80
2022-09-25T16:37:35.751Z,21.80
2022-09-25T16:40:38.669Z,21.80
2022-09-25T16:43:41.320Z,21.90
2022-09-25T16:47:26.143Z,21.80
2022-09-25T16:50:33.342Z,21.80
2022-09-25T16:53:35.349Z,21.80
2022-09-25T16:56:37.600Z,21.80
2022-09-25T16:59:39.721Z,21.90
2022-09-25T17:02:43.906Z,21.80
2022-09-25T17:05:45.975Z,21.80
2022-09-25T17:08:49.232Z,21.80
2022-09-25T17:11:55.996Z,21.80
2022-09-25T17:14:58.565Z,21.80
2022-09-25T17:18:01.789Z,21.80
2022-09-25T17:21:07.345Z,21.80
2022-09-25T17:24:12.597Z,21.80
2022-09-25T17:27:32.848Z,21.90
2022-09-25T17:30:55.665Z,21.80
2022-09-25T17:34:21.532Z,21.90
2022-09-25T17:37:43.656Z,21.80
2022-09-25T17:41:13.008Z,21.90
2022-09-25T17:44:35.133Z,21.90
2022-09-25T17:47:58.057Z,21.90
2022-09-25T17:51:27.459Z,21.90
2022-09-25T17:54:49.742Z,21.90
2022-09-25T17:58:11.994Z,21.90
2022-09-25T18:01:39.080Z,21.90
2022-09-25T18:05:02.632Z,22.00
2022-09-25T18:08:24.827Z,21.90
2022-09-25T18:11:46.958Z,21.90
2022-09-25T18:15:12.321Z,22.00
2022-09-25T18:18:53.451Z,22.00
2022-09-25T18:22:19.449Z,21.90
2022-09-25T18:25:41.854Z,21.90
2022-09-25T18:29:04.240Z,21.90
2022-09-25T18:32:26.541Z,22.00
2022-09-25T18:35:48.896Z,21.90
2022-09-25T18:39:13.889Z,21.90
2022-09-25T18:42:39.766Z,22.00
2022-09-25T18:46:03.417Z,21.90
2022-09-25T18:49:26.394Z,21.90
2022-09-25T18:52:48.593Z,21.90
2022-09-25T18:56:11.175Z,21.90
2022-09-25T18:59:33.825Z,22.00
2022-09-25T19:02:56.056Z,22.00
2022-09-25T19:06:18.742Z,22.00
2022-09-25T19:09:40.927Z,22.00
2022-09-25T19:13:04.167Z,21.90
2022-09-25T19:16:26.483Z,21.90
2022-09-25T19:19:48.718Z,21.90
2022-09-25T19:23:10.887Z,21.90
2022-09-25T19:26:33.104Z,21.90
2022-09-25T19:29:55.388Z,21.90
2022-09-25T19:33:17.570Z,21.90
2022-09-25T19:36:39.775Z,21.80
2022-09-25T19:40:20.666Z,21.90
2022-09-25T19:43:43.531Z,21.70
2022-09-25T19:47:05.694Z,21.70
2022-09-25T19:50:28.106Z,21.70
2022-09-25T19:53:51.882Z,21.70
2022-09-25T19:57:14.582Z,21.60
2022-09-25T20:00:41.510Z,21.70
2022-09-25T20:04:08.101Z,21.70
2022-09-25T20:07:30.677Z,21.70
2022-09-25T20:10:52.807Z,21.70
2022-09-25T20:14:14.986Z,21.60
2022-09-25T20:17:37.085Z,21.60
2022-09-25T20:21:04.293Z,21.60
2022-09-25T20:24:26.467Z,21.60
2022-09-25T20:27:55.050Z,21.60
2022-09-25T20:31:17.264Z,21.60
2022-09-25T20:34:39.434Z,21.60
2022-09-25T20:38:01.815Z,21.60
2022-09-25T20:41:26.149Z,21.60
2022-09-25T20:44:48.274Z,21.60
2022-09-25T20:48:10.507Z,21.60
2022-09-25T20:51:35.221Z,21.50
2022-09-25T20:54:58.120Z,21.60
2022-09-25T20:58:20.610Z,21.50
2022-09-25T21:01:42.882Z,21.50
2022-09-25T21:05:05.533Z,21.60
2022-09-25T21:08:28.682Z,21.60
2022-09-25T21:11:51.207Z,21.50
2022-09-25T21:15:13.383Z,21.50
2022-09-25T21:18:36.576Z,21.50
2022-09-25T21:21:58.790Z,21.50
2022-09-25T21:25:21.092Z,21.50
2022-09-25T21:28:45.616Z,21.50
2022-09-25T21:32:08.200Z,21.50
2022-09-25T21:35:31.483Z,21.50
2022-09-25T21:38:53.681Z,21.50
2022-09-25T21:42:16.035Z,21.50
2022-09-25T21:45:38.189Z,21.40
2022-09-25T21:49:02.901Z,21.40
2022-09-25T21:52:25.569Z,21.40
2022-09-25T21:55:48.117Z,21.40
2022-09-25T21:59:10.490Z,21.40
2022-09-25T22:02:33.026Z,21.40
2022-09-25T22:05:59.685Z,21.40
2022-09-25T22:09:23.254Z,21.40
2022-09-25T22:12:45.397Z,21.40
2022-09-25T22:16:10.609Z,21.40
2022-09-25T22:19:32.949Z,21.40
2022-09-25T22:22:55.055Z,21.40
2022-09-25T22:26:18.389Z,21.40
2022-09-25T22:29:40.506Z,21.40
2022-09-25T22:33:02.695Z,21.30
2022-09-25T22:36:26.175Z,21.40
2022-09-25T22:39:48.337Z,21.30
2022-09-25T22:43:10.538Z,21.30
2022-09-25T22:46:32.987Z,21.30
2022-09-25T22:49:55.149Z,21.30
2022-09-25T22:53:17.461Z,21.30
2022-09-25T22:56:39.775Z,21.30
2022-09-25T23:00:02.028Z,21.30
2022-09-25T23:03:24.848Z,21.20
2022-09-25T23:06:47.320Z,21.20
2022-09-25T23:10:09.694Z,21.20
2022-09-25T23:13:32.497Z,21.20
2022-09-25T23:16:55.325Z,21.20
2022-09-25T23:20:18.561Z,21.20
2022-09-25T23:23:40.804Z,21.20
2022-09-25T23:27:03.084Z,21.20
2022-09-25T23:30:25.735Z,21.20
2022-09-25T23:33:48.313Z,21.20
2022-09-25T23:37:10.502Z,21.20
2022-09-25T23:40:32.819Z,21.20
2022-09-25T23:43:56.118Z,21.20
2022-09-25T23:47:18.645Z,21.20
2022-09-25T23:50:40.880Z,21.20
2022-09-25T23:54:03.594Z,21.20
2022-09-25T23:57:25.738Z,21.20
